sensor_id;sensor_type;location;lat;lon;timestamp;P1;durP1;ratioP1;P2;durP2;ratioP2
64682;SDS011;51107;47.652;19.016;2023-04-15T00:00:57;3.47;;;1.85;;
64682;SDS011;51107;47.652;19.016;2023-04-15T00:03:27;3.45;;;1.23;;
64682;SDS011;51107;47.652;19.016;2023-04-15T00:05:57;1.65;;;1.23;;
64682;SDS011;51107;47.652;19.016;2023-04-15T00:08:26;3.08;;;1.83;;
64682;SDS011;51107;47.652;19.016;2023-04-15T00:10:57;1.45;;;1.35;;
64682;SDS011;51107;47.652;19.016;2023-04-15T00:13:30;3.55;;;1.92;;
64682;SDS011;51107;47.652;19.016;2023-04-15T00:16:02;2.87;;;1.65;;
64682;SDS011;51107;47.652;19.016;2023-04-15T00:18:31;2.17;;;1.67;;
64682;SDS011;51107;47.652;19.016;2023-04-15T00:20:59;2.20;;;1.67;;
64682;SDS011;51107;47.652;19.016;2023-04-15T00:23:27;3.60;;;1.73;;
64682;SDS011;51107;47.652;19.016;2023-04-15T00:25:56;5.00;;;1.67;;
64682;SDS011;51107;47.652;19.016;2023-04-15T00:28:25;3.00;;;2.12;;
64682;SDS011;51107;47.652;19.016;2023-04-15T00:30:54;4.15;;;1.67;;
64682;SDS011;51107;47.652;19.016;2023-04-15T00:33:23;3.95;;;1.73;;
64682;SDS011;51107;47.652;19.016;2023-04-15T00:35:52;2.92;;;1.85;;
64682;SDS011;51107;47.652;19.016;2023-04-15T00:38:20;1.75;;;1.25;;
64682;SDS011;51107;47.652;19.016;2023-04-15T00:40:49;2.40;;;1.70;;
64682;SDS011;51107;47.652;19.016;2023-04-15T00:43:17;1.40;;;1.17;;
64682;SDS011;51107;47.652;19.016;2023-04-15T00:45:45;2.17;;;1.65;;
64682;SDS011;51107;47.652;19.016;2023-04-15T00:48:14;3.53;;;1.55;;
64682;SDS011;51107;47.652;19.016;2023-04-15T00:50:43;6.28;;;1.65;;
64682;SDS011;51107;47.652;19.016;2023-04-15T00:53:11;1.40;;;1.02;;
64682;SDS011;51107;47.652;19.016;2023-04-15T00:55:40;2.12;;;1.80;;
64682;SDS011;51107;47.652;19.016;2023-04-15T00:58:09;1.55;;;1.40;;
64682;SDS011;51107;47.652;19.016;2023-04-15T01:00:37;1.83;;;1.60;;
64682;SDS011;51107;47.652;19.016;2023-04-15T01:03:07;2.22;;;1.67;;
64682;SDS011;51107;47.652;19.016;2023-04-15T01:05:36;1.87;;;1.12;;
64682;SDS011;51107;47.652;19.016;2023-04-15T01:08:06;1.65;;;1.48;;
64682;SDS011;51107;47.652;19.016;2023-04-15T01:10:35;4.72;;;1.95;;
64682;SDS011;51107;47.652;19.016;2023-04-15T01:13:04;3.55;;;1.40;;
64682;SDS011;51107;47.652;19.016;2023-04-15T01:15:33;2.95;;;1.80;;
64682;SDS011;51107;47.652;19.016;2023-04-15T01:18:03;2.45;;;1.62;;
64682;SDS011;51107;47.652;19.016;2023-04-15T01:20:32;1.33;;;1.10;;
64682;SDS011;51107;47.652;19.016;2023-04-15T01:23:01;1.65;;;1.17;;
64682;SDS011;51107;47.652;19.016;2023-04-15T01:25:31;2.42;;;1.55;;
64682;SDS011;51107;47.652;19.016;2023-04-15T01:28:00;1.58;;;0.93;;
64682;SDS011;51107;47.652;19.016;2023-04-15T01:30:32;2.80;;;1.30;;
64682;SDS011;51107;47.652;19.016;2023-04-15T01:33:01;1.00;;;0.85;;
64682;SDS011;51107;47.652;19.016;2023-04-15T01:35:35;2.50;;;1.40;;
64682;SDS011;51107;47.652;19.016;2023-04-15T01:38:04;1.60;;;1.05;;
64682;SDS011;51107;47.652;19.016;2023-04-15T01:40:34;1.85;;;1.25;;
64682;SDS011;51107;47.652;19.016;2023-04-15T01:43:02;1.55;;;1.27;;
64682;SDS011;51107;47.652;19.016;2023-04-15T01:45:31;2.00;;;1.37;;
64682;SDS011;51107;47.652;19.016;2023-04-15T01:48:00;1.50;;;1.25;;
64682;SDS011;51107;47.652;19.016;2023-04-15T01:50:28;2.50;;;1.70;;
64682;SDS011;51107;47.652;19.016;2023-04-15T01:52:56;2.65;;;1.33;;
64682;SDS011;51107;47.652;19.016;2023-04-15T01:55:25;2.60;;;2.00;;
64682;SDS011;51107;47.652;19.016;2023-04-15T01:57:53;3.40;;;1.52;;
64682;SDS011;51107;47.652;19.016;2023-04-15T02:00:23;2.37;;;1.70;;
64682;SDS011;51107;47.652;19.016;2023-04-15T02:02:52;1.27;;;1.17;;
64682;SDS011;51107;47.652;19.016;2023-04-15T02:05:20;2.80;;;1.48;;
64682;SDS011;51107;47.652;19.016;2023-04-15T02:07:48;1.10;;;0.90;;
64682;SDS011;51107;47.652;19.016;2023-04-15T02:10:17;2.85;;;1.23;;
64682;SDS011;51107;47.652;19.016;2023-04-15T02:12:46;1.92;;;1.27;;
64682;SDS011;51107;47.652;19.016;2023-04-15T02:15:14;2.65;;;1.52;;
64682;SDS011;51107;47.652;19.016;2023-04-15T02:17:43;1.80;;;1.37;;
64682;SDS011;51107;47.652;19.016;2023-04-15T02:20:15;2.62;;;1.67;;
64682;SDS011;51107;47.652;19.016;2023-04-15T02:22:45;2.12;;;1.48;;
64682;SDS011;51107;47.652;19.016;2023-04-15T02:25:14;2.58;;;1.90;;
64682;SDS011;51107;47.652;19.016;2023-04-15T02:27:43;2.03;;;1.02;;
64682;SDS011;51107;47.652;19.016;2023-04-15T02:30:13;1.48;;;1.17;;
64682;SDS011;51107;47.652;19.016;2023-04-15T02:32:41;2.65;;;1.95;;
64682;SDS011;51107;47.652;19.016;2023-04-15T02:35:12;2.40;;;1.87;;
64682;SDS011;51107;47.652;19.016;2023-04-15T02:37:40;3.08;;;1.58;;
64682;SDS011;51107;47.652;19.016;2023-04-15T02:40:12;0.80;;;0.80;;
64682;SDS011;51107;47.652;19.016;2023-04-15T02:42:41;2.28;;;1.40;;
64682;SDS011;51107;47.652;19.016;2023-04-15T02:45:11;6.25;;;3.08;;
64682;SDS011;51107;47.652;19.016;2023-04-15T02:47:40;2.42;;;1.67;;
64682;SDS011;51107;47.652;19.016;2023-04-15T02:50:10;3.65;;;1.83;;
64682;SDS011;51107;47.652;19.016;2023-04-15T02:52:40;2.37;;;1.50;;
64682;SDS011;51107;47.652;19.016;2023-04-15T02:55:09;2.17;;;1.12;;
64682;SDS011;51107;47.652;19.016;2023-04-15T02:57:38;8.00;;;3.85;;
64682;SDS011;51107;47.652;19.016;2023-04-15T03:00:08;10.13;;;3.28;;
64682;SDS011;51107;47.652;19.016;2023-04-15T03:02:39;6.05;;;2.22;;
64682;SDS011;51107;47.652;19.016;2023-04-15T03:05:12;3.97;;;2.83;;
64682;SDS011;51107;47.652;19.016;2023-04-15T03:07:42;4.65;;;2.10;;
64682;SDS011;51107;47.652;19.016;2023-04-15T03:10:10;3.22;;;1.52;;
64682;SDS011;51107;47.652;19.016;2023-04-15T03:12:39;3.33;;;1.55;;
64682;SDS011;51107;47.652;19.016;2023-04-15T03:15:08;2.30;;;1.45;;
64682;SDS011;51107;47.652;19.016;2023-04-15T03:17:37;2.85;;;1.48;;
64682;SDS011;51107;47.652;19.016;2023-04-15T03:20:06;2.50;;;1.23;;
64682;SDS011;51107;47.652;19.016;2023-04-15T03:22:35;5.95;;;2.42;;
64682;SDS011;51107;47.652;19.016;2023-04-15T03:25:03;2.78;;;1.62;;
64682;SDS011;51107;47.652;19.016;2023-04-15T03:27:32;3.65;;;1.37;;
64682;SDS011;51107;47.652;19.016;2023-04-15T03:30:01;2.55;;;1.87;;
64682;SDS011;51107;47.652;19.016;2023-04-15T03:32:30;4.03;;;1.65;;
64682;SDS011;51107;47.652;19.016;2023-04-15T03:34:59;3.58;;;1.92;;
64682;SDS011;51107;47.652;19.016;2023-04-15T03:37:27;2.97;;;1.92;;
64682;SDS011;51107;47.652;19.016;2023-04-15T03:39:56;4.05;;;1.90;;
64682;SDS011;51107;47.652;19.016;2023-04-15T03:42:24;2.90;;;2.03;;
64682;SDS011;51107;47.652;19.016;2023-04-15T03:44:53;2.10;;;1.33;;
64682;SDS011;51107;47.652;19.016;2023-04-15T03:47:21;1.77;;;1.27;;
64682;SDS011;51107;47.652;19.016;2023-04-15T03:49:49;4.78;;;2.30;;
64682;SDS011;51107;47.652;19.016;2023-04-15T03:52:18;4.07;;;2.58;;
64682;SDS011;51107;47.652;19.016;2023-04-15T03:54:46;4.65;;;1.92;;
64682;SDS011;51107;47.652;19.016;2023-04-15T03:57:14;2.08;;;1.75;;
64682;SDS011;51107;47.652;19.016;2023-04-15T03:59:43;2.33;;;1.45;;
64682;SDS011;51107;47.652;19.016;2023-04-15T04:02:11;3.42;;;1.70;;
64682;SDS011;51107;47.652;19.016;2023-04-15T04:04:40;2.78;;;1.70;;
64682;SDS011;51107;47.652;19.016;2023-04-15T04:07:13;2.25;;;1.90;;
64682;SDS011;51107;47.652;19.016;2023-04-15T04:09:43;2.90;;;1.67;;
64682;SDS011;51107;47.652;19.016;2023-04-15T04:12:14;2.42;;;1.45;;
64682;SDS011;51107;47.652;19.016;2023-04-15T04:14:42;2.17;;;1.27;;
64682;SDS011;51107;47.652;19.016;2023-04-15T04:17:10;3.37;;;1.90;;
64682;SDS011;51107;47.652;19.016;2023-04-15T04:19:39;2.87;;;2.10;;
64682;SDS011;51107;47.652;19.016;2023-04-15T04:22:07;3.22;;;1.73;;
64682;SDS011;51107;47.652;19.016;2023-04-15T04:24:36;2.97;;;1.45;;
64682;SDS011;51107;47.652;19.016;2023-04-15T04:27:04;1.58;;;0.98;;
64682;SDS011;51107;47.652;19.016;2023-04-15T04:29:32;3.05;;;1.52;;
64682;SDS011;51107;47.652;19.016;2023-04-15T04:32:01;3.22;;;1.58;;
64682;SDS011;51107;47.652;19.016;2023-04-15T04:34:29;2.75;;;1.55;;
64682;SDS011;51107;47.652;19.016;2023-04-15T04:36:59;1.85;;;1.35;;
64682;SDS011;51107;47.652;19.016;2023-04-15T04:39:27;5.43;;;1.67;;
64682;SDS011;51107;47.652;19.016;2023-04-15T04:41:56;1.85;;;1.17;;
64682;SDS011;51107;47.652;19.016;2023-04-15T04:44:24;2.42;;;1.55;;
64682;SDS011;51107;47.652;19.016;2023-04-15T04:46:53;3.05;;;1.45;;
64682;SDS011;51107;47.652;19.016;2023-04-15T04:49:21;1.85;;;1.60;;
64682;SDS011;51107;47.652;19.016;2023-04-15T04:51:49;0.73;;;0.68;;
64682;SDS011;51107;47.652;19.016;2023-04-15T04:54:18;0.73;;;0.73;;
64682;SDS011;51107;47.652;19.016;2023-04-15T04:56:46;3.53;;;1.17;;
64682;SDS011;51107;47.652;19.016;2023-04-15T04:59:15;1.23;;;0.95;;
64682;SDS011;51107;47.652;19.016;2023-04-15T05:01:45;2.40;;;1.00;;
64682;SDS011;51107;47.652;19.016;2023-04-15T05:04:13;1.73;;;1.30;;
64682;SDS011;51107;47.652;19.016;2023-04-15T05:06:42;0.70;;;0.70;;
64682;SDS011;51107;47.652;19.016;2023-04-15T05:09:10;1.42;;;1.10;;
64682;SDS011;51107;47.652;19.016;2023-04-15T05:11:39;2.70;;;1.65;;
64682;SDS011;51107;47.652;19.016;2023-04-15T05:14:07;1.87;;;1.27;;
64682;SDS011;51107;47.652;19.016;2023-04-15T05:16:36;1.62;;;1.42;;
64682;SDS011;51107;47.652;19.016;2023-04-15T05:19:04;1.73;;;0.95;;
64682;SDS011;51107;47.652;19.016;2023-04-15T05:21:33;2.22;;;1.40;;
64682;SDS011;51107;47.652;19.016;2023-04-15T05:24:01;1.42;;;1.27;;
64682;SDS011;51107;47.652;19.016;2023-04-15T05:26:29;2.10;;;1.75;;
64682;SDS011;51107;47.652;19.016;2023-04-15T05:28:58;1.37;;;0.82;;
64682;SDS011;51107;47.652;19.016;2023-04-15T05:31:27;2.90;;;1.40;;
64682;SDS011;51107;47.652;19.016;2023-04-15T05:33:55;2.37;;;1.62;;
64682;SDS011;51107;47.652;19.016;2023-04-15T05:36:23;2.28;;;1.20;;
64682;SDS011;51107;47.652;19.016;2023-04-15T05:38:52;1.58;;;1.02;;
64682;SDS011;51107;47.652;19.016;2023-04-15T05:41:21;1.70;;;1.35;;
64682;SDS011;51107;47.652;19.016;2023-04-15T05:43:49;9.38;;;1.58;;
64682;SDS011;51107;47.652;19.016;2023-04-15T05:46:18;1.35;;;1.23;;
64682;SDS011;51107;47.652;19.016;2023-04-15T05:48:46;1.70;;;1.30;;
64682;SDS011;51107;47.652;19.016;2023-04-15T05:51:15;2.22;;;1.12;;
64682;SDS011;51107;47.652;19.016;2023-04-15T05:53:43;1.42;;;1.12;;
64682;SDS011;51107;47.652;19.016;2023-04-15T05:56:12;3.33;;;1.23;;
64682;SDS011;51107;47.652;19.016;2023-04-15T05:58:41;6.12;;;2.05;;
64682;SDS011;51107;47.652;19.016;2023-04-15T06:01:09;2.65;;;1.42;;
64682;SDS011;51107;47.652;19.016;2023-04-15T06:03:38;1.85;;;1.60;;
64682;SDS011;51107;47.652;19.016;2023-04-15T06:06:07;1.70;;;1.25;;
64682;SDS011;51107;47.652;19.016;2023-04-15T06:08:35;2.10;;;1.37;;
64682;SDS011;51107;47.652;19.016;2023-04-15T06:11:04;2.72;;;1.70;;
64682;SDS011;51107;47.652;19.016;2023-04-15T06:13:32;5.47;;;1.87;;
64682;SDS011;51107;47.652;19.016;2023-04-15T06:16:01;1.70;;;1.40;;
64682;SDS011;51107;47.652;19.016;2023-04-15T06:18:31;2.67;;;1.60;;
64682;SDS011;51107;47.652;19.016;2023-04-15T06:20:59;2.55;;;1.70;;
64682;SDS011;51107;47.652;19.016;2023-04-15T06:23:28;2.08;;;1.67;;
64682;SDS011;51107;47.652;19.016;2023-04-15T06:25:57;2.28;;;1.60;;
64682;SDS011;51107;47.652;19.016;2023-04-15T06:28:25;2.42;;;1.75;;
64682;SDS011;51107;47.652;19.016;2023-04-15T06:30:54;3.95;;;1.95;;
64682;SDS011;51107;47.652;19.016;2023-04-15T06:33:23;4.65;;;2.03;;
64682;SDS011;51107;47.652;19.016;2023-04-15T06:35:51;2.30;;;1.77;;
64682;SDS011;51107;47.652;19.016;2023-04-15T06:38:20;2.00;;;1.77;;
64682;SDS011;51107;47.652;19.016;2023-04-15T06:40:48;3.65;;;1.83;;
64682;SDS011;51107;47.652;19.016;2023-04-15T06:43:17;2.20;;;1.67;;
64682;SDS011;51107;47.652;19.016;2023-04-15T06:45:45;3.55;;;1.73;;
64682;SDS011;51107;47.652;19.016;2023-04-15T06:48:14;3.53;;;2.12;;
64682;SDS011;51107;47.652;19.016;2023-04-15T06:50:43;2.70;;;1.83;;
64682;SDS011;51107;47.652;19.016;2023-04-15T06:53:12;2.60;;;1.67;;
64682;SDS011;51107;47.652;19.016;2023-04-15T06:55:40;2.70;;;1.42;;
64682;SDS011;51107;47.652;19.016;2023-04-15T06:58:08;3.62;;;1.62;;
64682;SDS011;51107;47.652;19.016;2023-04-15T07:00:37;2.65;;;1.75;;
64682;SDS011;51107;47.652;19.016;2023-04-15T07:03:06;4.20;;;2.25;;
64682;SDS011;51107;47.652;19.016;2023-04-15T07:05:38;4.60;;;2.05;;
64682;SDS011;51107;47.652;19.016;2023-04-15T07:08:06;1.80;;;1.23;;
64682;SDS011;51107;47.652;19.016;2023-04-15T07:10:35;2.25;;;1.48;;
64682;SDS011;51107;47.652;19.016;2023-04-15T07:13:03;2.92;;;1.60;;
64682;SDS011;51107;47.652;19.016;2023-04-15T07:15:33;1.35;;;1.17;;
64682;SDS011;51107;47.652;19.016;2023-04-15T07:18:01;2.25;;;1.45;;
64682;SDS011;51107;47.652;19.016;2023-04-15T07:20:30;2.22;;;1.33;;
64682;SDS011;51107;47.652;19.016;2023-04-15T07:22:59;1.15;;;0.98;;
64682;SDS011;51107;47.652;19.016;2023-04-15T07:25:27;1.25;;;0.85;;
64682;SDS011;51107;47.652;19.016;2023-04-15T07:27:55;1.45;;;0.80;;
64682;SDS011;51107;47.652;19.016;2023-04-15T07:30:24;2.10;;;1.27;;
64682;SDS011;51107;47.652;19.016;2023-04-15T07:32:52;1.00;;;0.73;;
64682;SDS011;51107;47.652;19.016;2023-04-15T07:35:21;1.20;;;1.10;;
64682;SDS011;51107;47.652;19.016;2023-04-15T07:37:50;1.77;;;1.20;;
64682;SDS011;51107;47.652;19.016;2023-04-15T07:40:18;1.08;;;0.98;;
64682;SDS011;51107;47.652;19.016;2023-04-15T07:42:47;1.23;;;0.88;;
64682;SDS011;51107;47.652;19.016;2023-04-15T07:45:16;2.30;;;1.42;;
64682;SDS011;51107;47.652;19.016;2023-04-15T07:47:44;1.73;;;1.37;;
64682;SDS011;51107;47.652;19.016;2023-04-15T07:50:13;1.05;;;0.80;;
64682;SDS011;51107;47.652;19.016;2023-04-15T07:52:42;2.08;;;1.50;;
64682;SDS011;51107;47.652;19.016;2023-04-15T07:55:11;1.25;;;1.02;;
64682;SDS011;51107;47.652;19.016;2023-04-15T07:57:39;1.42;;;1.12;;
64682;SDS011;51107;47.652;19.016;2023-04-15T08:00:07;1.30;;;0.95;;
64682;SDS011;51107;47.652;19.016;2023-04-15T08:02:39;0.88;;;0.80;;
64682;SDS011;51107;47.652;19.016;2023-04-15T08:05:09;1.62;;;1.08;;
64682;SDS011;51107;47.652;19.016;2023-04-15T08:07:37;1.37;;;1.00;;
64682;SDS011;51107;47.652;19.016;2023-04-15T08:10:06;0.80;;;0.77;;
64682;SDS011;51107;47.652;19.016;2023-04-15T08:12:35;1.12;;;0.80;;
64682;SDS011;51107;47.652;19.016;2023-04-15T08:15:04;1.42;;;0.82;;
64682;SDS011;51107;47.652;19.016;2023-04-15T08:17:34;0.75;;;0.62;;
64682;SDS011;51107;47.652;19.016;2023-04-15T08:20:03;1.08;;;0.80;;
64682;SDS011;51107;47.652;19.016;2023-04-15T08:22:32;1.12;;;0.88;;
64682;SDS011;51107;47.652;19.016;2023-04-15T08:25:01;5.53;;;2.87;;
64682;SDS011;51107;47.652;19.016;2023-04-15T08:27:30;1.85;;;1.52;;
64682;SDS011;51107;47.652;19.016;2023-04-15T08:29:58;1.40;;;1.30;;
64682;SDS011;51107;47.652;19.016;2023-04-15T08:32:30;0.98;;;0.73;;
64682;SDS011;51107;47.652;19.016;2023-04-15T08:34:59;2.55;;;1.23;;
64682;SDS011;51107;47.652;19.016;2023-04-15T08:37:27;1.48;;;0.98;;
64682;SDS011;51107;47.652;19.016;2023-04-15T08:39:55;8.38;;;1.35;;
64682;SDS011;51107;47.652;19.016;2023-04-15T08:42:30;1.80;;;0.80;;
64682;SDS011;51107;47.652;19.016;2023-04-15T08:45:00;0.75;;;0.60;;
64682;SDS011;51107;47.652;19.016;2023-04-15T08:47:31;1.02;;;0.80;;
64682;SDS011;51107;47.652;19.016;2023-04-15T08:50:01;1.00;;;0.82;;
64682;SDS011;51107;47.652;19.016;2023-04-15T08:52:31;1.45;;;0.82;;
64682;SDS011;51107;47.652;19.016;2023-04-15T08:54:59;2.97;;;0.88;;
64682;SDS011;51107;47.652;19.016;2023-04-15T08:57:30;0.88;;;0.62;;
64682;SDS011;51107;47.652;19.016;2023-04-15T09:00:01;0.77;;;0.68;;
64682;SDS011;51107;47.652;19.016;2023-04-15T09:02:32;1.25;;;1.00;;
64682;SDS011;51107;47.652;19.016;2023-04-15T09:05:01;2.30;;;0.60;;
64682;SDS011;51107;47.652;19.016;2023-04-15T09:07:32;0.65;;;0.65;;
64682;SDS011;51107;47.652;19.016;2023-04-15T09:10:03;3.25;;;0.93;;
64682;SDS011;51107;47.652;19.016;2023-04-15T09:12:35;1.05;;;0.57;;
64682;SDS011;51107;47.652;19.016;2023-04-15T09:15:04;1.30;;;0.90;;
64682;SDS011;51107;47.652;19.016;2023-04-15T09:17:33;1.15;;;0.68;;
64682;SDS011;51107;47.652;19.016;2023-04-15T09:20:08;0.77;;;0.62;;
64682;SDS011;51107;47.652;19.016;2023-04-15T09:22:38;1.15;;;0.70;;
64682;SDS011;51107;47.652;19.016;2023-04-15T09:27:49;0.60;;;0.50;;
64682;SDS011;51107;47.652;19.016;2023-04-15T09:30:25;0.62;;;0.60;;
64682;SDS011;51107;47.652;19.016;2023-04-15T09:32:59;1.08;;;0.50;;
64682;SDS011;51107;47.652;19.016;2023-04-15T09:35:35;1.75;;;0.88;;
64682;SDS011;51107;47.652;19.016;2023-04-15T09:38:07;1.23;;;0.90;;
64682;SDS011;51107;47.652;19.016;2023-04-15T09:40:39;2.42;;;0.98;;
64682;SDS011;51107;47.652;19.016;2023-04-15T09:43:09;0.82;;;0.77;;
64682;SDS011;51107;47.652;19.016;2023-04-15T09:45:40;0.70;;;0.52;;
64682;SDS011;51107;47.652;19.016;2023-04-15T09:48:22;0.65;;;0.60;;
64682;SDS011;51107;47.652;19.016;2023-04-15T09:50:58;0.32;;;0.30;;
64682;SDS011;51107;47.652;19.016;2023-04-15T09:53:28;0.98;;;0.70;;
64682;SDS011;51107;47.652;19.016;2023-04-15T09:56:01;1.23;;;0.77;;
64682;SDS011;51107;47.652;19.016;2023-04-15T09:58:31;1.48;;;0.82;;
64682;SDS011;51107;47.652;19.016;2023-04-15T10:01:02;0.45;;;0.45;;
64682;SDS011;51107;47.652;19.016;2023-04-15T10:03:33;2.00;;;0.98;;
64682;SDS011;51107;47.652;19.016;2023-04-15T10:06:03;1.05;;;0.80;;
64682;SDS011;51107;47.652;19.016;2023-04-15T10:08:33;1.10;;;0.68;;
64682;SDS011;51107;47.652;19.016;2023-04-15T10:11:01;0.65;;;0.62;;
64682;SDS011;51107;47.652;19.016;2023-04-15T10:13:32;0.98;;;0.82;;
64682;SDS011;51107;47.652;19.016;2023-04-15T10:16:04;0.88;;;0.70;;
64682;SDS011;51107;47.652;19.016;2023-04-15T10:18:37;3.75;;;1.27;;
64682;SDS011;51107;47.652;19.016;2023-04-15T10:21:10;1.35;;;0.80;;
64682;SDS011;51107;47.652;19.016;2023-04-15T10:23:40;0.85;;;0.77;;
64682;SDS011;51107;47.652;19.016;2023-04-15T10:26:09;1.15;;;0.85;;
64682;SDS011;51107;47.652;19.016;2023-04-15T10:28:39;1.90;;;0.57;;
64682;SDS011;51107;47.652;19.016;2023-04-15T10:31:11;0.60;;;0.60;;
64682;SDS011;51107;47.652;19.016;2023-04-15T10:33:41;0.90;;;0.85;;
64682;SDS011;51107;47.652;19.016;2023-04-15T10:36:11;0.52;;;0.40;;
64682;SDS011;51107;47.652;19.016;2023-04-15T10:38:40;0.52;;;0.52;;
64682;SDS011;51107;47.652;19.016;2023-04-15T10:43:59;0.37;;;0.37;;
64682;SDS011;51107;47.652;19.016;2023-04-15T10:49:13;0.75;;;0.60;;
64682;SDS011;51107;47.652;19.016;2023-04-15T10:51:45;0.30;;;0.30;;
64682;SDS011;51107;47.652;19.016;2023-04-15T10:59:36;0.30;;;0.30;;
64682;SDS011;51107;47.652;19.016;2023-04-15T11:02:06;1.05;;;0.77;;
64682;SDS011;51107;47.652;19.016;2023-04-15T11:15:29;0.45;;;0.20;;
64682;SDS011;51107;47.652;19.016;2023-04-15T11:18:11;0.55;;;0.28;;
64682;SDS011;51107;47.652;19.016;2023-04-15T11:20:50;3.30;;;1.17;;
64682;SDS011;51107;47.652;19.016;2023-04-15T11:23:28;1.02;;;0.60;;
64682;SDS011;51107;47.652;19.016;2023-04-15T11:26:08;1.98;;;0.65;;
64682;SDS011;51107;47.652;19.016;2023-04-15T11:28:40;4.00;;;1.12;;
64682;SDS011;51107;47.652;19.016;2023-04-15T11:31:11;0.73;;;0.45;;
64682;SDS011;51107;47.652;19.016;2023-04-15T11:33:46;2.42;;;1.42;;
64682;SDS011;51107;47.652;19.016;2023-04-15T11:36:25;1.08;;;0.65;;
64682;SDS011;51107;47.652;19.016;2023-04-15T11:38:56;0.30;;;0.20;;
64682;SDS011;51107;47.652;19.016;2023-04-15T11:41:25;0.22;;;0.22;;
64682;SDS011;51107;47.652;19.016;2023-04-15T11:43:53;0.20;;;0.20;;
64682;SDS011;51107;47.652;19.016;2023-04-15T11:46:27;1.00;;;0.32;;
64682;SDS011;51107;47.652;19.016;2023-04-15T11:48:58;0.30;;;0.30;;
64682;SDS011;51107;47.652;19.016;2023-04-15T11:51:30;0.93;;;0.37;;
64682;SDS011;51107;47.652;19.016;2023-04-15T11:53:59;0.17;;;0.17;;
64682;SDS011;51107;47.652;19.016;2023-04-15T11:56:28;1.00;;;0.37;;
64682;SDS011;51107;47.652;19.016;2023-04-15T11:58:57;1.52;;;0.95;;
64682;SDS011;51107;47.652;19.016;2023-04-15T12:01:36;0.40;;;0.20;;
64682;SDS011;51107;47.652;19.016;2023-04-15T12:04:15;0.32;;;0.32;;
64682;SDS011;51107;47.652;19.016;2023-04-15T12:06:48;2.58;;;0.73;;
64682;SDS011;51107;47.652;19.016;2023-04-15T12:09:17;1.95;;;0.93;;
64682;SDS011;51107;47.652;19.016;2023-04-15T12:11:47;4.40;;;1.75;;
64682;SDS011;51107;47.652;19.016;2023-04-15T12:14:23;1.75;;;1.10;;
64682;SDS011;51107;47.652;19.016;2023-04-15T12:16:52;0.40;;;0.40;;
64682;SDS011;51107;47.652;19.016;2023-04-15T12:19:26;2.20;;;0.50;;
64682;SDS011;51107;47.652;19.016;2023-04-15T12:21:57;0.40;;;0.40;;
64682;SDS011;51107;47.652;19.016;2023-04-15T12:24:30;1.25;;;0.52;;
64682;SDS011;51107;47.652;19.016;2023-04-15T12:27:03;0.17;;;0.17;;
64682;SDS011;51107;47.652;19.016;2023-04-15T12:29:33;0.28;;;0.25;;
64682;SDS011;51107;47.652;19.016;2023-04-15T12:32:04;0.57;;;0.30;;
64682;SDS011;51107;47.652;19.016;2023-04-15T12:34:40;0.50;;;0.43;;
64682;SDS011;51107;47.652;19.016;2023-04-15T12:37:11;0.77;;;0.50;;
64682;SDS011;51107;47.652;19.016;2023-04-15T12:39:42;0.40;;;0.32;;
64682;SDS011;51107;47.652;19.016;2023-04-15T12:42:12;0.35;;;0.30;;
64682;SDS011;51107;47.652;19.016;2023-04-15T12:44:41;1.15;;;0.40;;
64682;SDS011;51107;47.652;19.016;2023-04-15T12:47:10;0.47;;;0.32;;
64682;SDS011;51107;47.652;19.016;2023-04-15T12:49:40;0.50;;;0.40;;
64682;SDS011;51107;47.652;19.016;2023-04-15T12:52:08;0.30;;;0.30;;
64682;SDS011;51107;47.652;19.016;2023-04-15T12:54:37;0.28;;;0.25;;
64682;SDS011;51107;47.652;19.016;2023-04-15T12:57:06;0.20;;;0.20;;
64682;SDS011;51107;47.652;19.016;2023-04-15T12:59:35;0.32;;;0.17;;
64682;SDS011;51107;47.652;19.016;2023-04-15T13:02:03;1.00;;;0.20;;
64682;SDS011;51107;47.652;19.016;2023-04-15T13:04:32;0.22;;;0.17;;
64682;SDS011;51107;47.652;19.016;2023-04-15T13:07:01;0.73;;;0.50;;
64682;SDS011;51107;47.652;19.016;2023-04-15T13:09:30;0.45;;;0.30;;
64682;SDS011;51107;47.652;19.016;2023-04-15T13:11:58;0.45;;;0.30;;
64682;SDS011;51107;47.652;19.016;2023-04-15T13:14:27;0.47;;;0.47;;
64682;SDS011;51107;47.652;19.016;2023-04-15T13:16:55;0.30;;;0.25;;
64682;SDS011;51107;47.652;19.016;2023-04-15T13:19:24;0.20;;;0.20;;
64682;SDS011;51107;47.652;19.016;2023-04-15T13:21:54;0.40;;;0.40;;
64682;SDS011;51107;47.652;19.016;2023-04-15T13:24:23;0.45;;;0.30;;
64682;SDS011;51107;47.652;19.016;2023-04-15T13:26:51;0.30;;;0.25;;
64682;SDS011;51107;47.652;19.016;2023-04-15T13:29:20;0.55;;;0.45;;
64682;SDS011;51107;47.652;19.016;2023-04-15T13:31:48;0.50;;;0.28;;
64682;SDS011;51107;47.652;19.016;2023-04-15T13:34:17;0.95;;;0.47;;
64682;SDS011;51107;47.652;19.016;2023-04-15T13:36:46;1.48;;;0.60;;
64682;SDS011;51107;47.652;19.016;2023-04-15T13:39:14;0.50;;;0.50;;
64682;SDS011;51107;47.652;19.016;2023-04-15T13:41:42;0.93;;;0.57;;
64682;SDS011;51107;47.652;19.016;2023-04-15T13:44:11;0.50;;;0.40;;
64682;SDS011;51107;47.652;19.016;2023-04-15T13:46:40;0.50;;;0.50;;
64682;SDS011;51107;47.652;19.016;2023-04-15T13:49:09;1.15;;;0.52;;
64682;SDS011;51107;47.652;19.016;2023-04-15T13:51:38;0.60;;;0.55;;
64682;SDS011;51107;47.652;19.016;2023-04-15T13:54:07;3.72;;;1.87;;
64682;SDS011;51107;47.652;19.016;2023-04-15T13:56:35;3.67;;;0.90;;
64682;SDS011;51107;47.652;19.016;2023-04-15T13:59:04;0.70;;;0.55;;
64682;SDS011;51107;47.652;19.016;2023-04-15T14:01:33;0.30;;;0.20;;
64682;SDS011;51107;47.652;19.016;2023-04-15T14:04:02;0.60;;;0.37;;
64682;SDS011;51107;47.652;19.016;2023-04-15T14:06:31;0.60;;;0.60;;
64682;SDS011;51107;47.652;19.016;2023-04-15T14:08:59;1.10;;;0.28;;
64682;SDS011;51107;47.652;19.016;2023-04-15T14:11:28;0.40;;;0.40;;
64682;SDS011;51107;47.652;19.016;2023-04-15T14:13:57;1.50;;;0.82;;
64682;SDS011;51107;47.652;19.016;2023-04-15T14:16:25;0.50;;;0.50;;
64682;SDS011;51107;47.652;19.016;2023-04-15T14:18:54;1.08;;;0.73;;
64682;SDS011;51107;47.652;19.016;2023-04-15T14:21:23;3.50;;;0.70;;
64682;SDS011;51107;47.652;19.016;2023-04-15T14:23:53;0.62;;;0.60;;
64682;SDS011;51107;47.652;19.016;2023-04-15T14:26:21;1.25;;;0.80;;
64682;SDS011;51107;47.652;19.016;2023-04-15T14:28:50;0.40;;;0.37;;
64682;SDS011;51107;47.652;19.016;2023-04-15T14:31:18;1.37;;;0.73;;
64682;SDS011;51107;47.652;19.016;2023-04-15T14:33:47;1.10;;;0.70;;
64682;SDS011;51107;47.652;19.016;2023-04-15T14:36:15;0.88;;;0.50;;
64682;SDS011;51107;47.652;19.016;2023-04-15T14:38:44;0.30;;;0.30;;
64682;SDS011;51107;47.652;19.016;2023-04-15T14:41:15;3.03;;;1.23;;
64682;SDS011;51107;47.652;19.016;2023-04-15T14:43:44;0.82;;;0.65;;
64682;SDS011;51107;47.652;19.016;2023-04-15T14:46:12;0.68;;;0.55;;
64682;SDS011;51107;47.652;19.016;2023-04-15T14:48:41;1.12;;;0.60;;
64682;SDS011;51107;47.652;19.016;2023-04-15T14:51:10;2.25;;;0.93;;
64682;SDS011;51107;47.652;19.016;2023-04-15T14:53:39;0.52;;;0.50;;
64682;SDS011;51107;47.652;19.016;2023-04-15T14:56:08;0.80;;;0.60;;
64682;SDS011;51107;47.652;19.016;2023-04-15T14:58:37;1.15;;;0.90;;
64682;SDS011;51107;47.652;19.016;2023-04-15T15:01:05;1.23;;;0.62;;
64682;SDS011;51107;47.652;19.016;2023-04-15T15:03:34;0.50;;;0.45;;
64682;SDS011;51107;47.652;19.016;2023-04-15T15:06:02;0.82;;;0.50;;
64682;SDS011;51107;47.652;19.016;2023-04-15T15:08:31;1.80;;;0.75;;
64682;SDS011;51107;47.652;19.016;2023-04-15T15:11:00;2.03;;;1.10;;